createdAt,value
2019-05-07T00:01:55.144Z,6.03
2019-05-07T00:04:23.315Z,6.17
2019-05-07T00:06:56.722Z,6.53
2019-05-07T00:09:25.581Z,6.03
2019-05-07T00:11:54.525Z,6.47
2019-05-07T00:14:23.616Z,6.13
2019-05-07T00:16:53.803Z,6.90
2019-05-07T00:19:23.185Z,6.87
2019-05-07T00:21:52.803Z,6.92
2019-05-07T00:24:22.407Z,6.67
2019-05-07T00:26:53.268Z,6.35
2019-05-07T00:29:22.503Z,6.90
2019-05-07T00:31:55.032Z,6.97
2019-05-07T00:34:27.311Z,6.60
2019-05-07T00:37:22.056Z,7.00
2019-05-07T00:40:22.646Z,6.60
2019-05-07T00:43:32.093Z,6.93
2019-05-07T00:46:13.623Z,6.70
2019-05-07T00:48:45.105Z,6.33
2019-05-07T00:51:42.562Z,6.97
2019-05-07T00:54:12.271Z,6.50
2019-05-07T00:56:42.884Z,6.53
2019-05-07T00:59:13.122Z,6.72
2019-05-07T01:01:43.273Z,6.60
2019-05-07T01:04:12.593Z,7.00
2019-05-07T01:06:42.364Z,6.93
2019-05-07T01:09:12.273Z,6.57
2019-05-07T01:11:43.745Z,7.73
2019-05-07T01:14:12.576Z,7.90
2019-05-07T01:16:42.080Z,7.47
2019-05-07T01:19:12.523Z,7.47
2019-05-07T01:21:43.277Z,7.87
2019-05-07T01:24:12.392Z,7.50
2019-05-07T01:26:44.136Z,7.58
2019-05-07T01:29:13.050Z,7.40
2019-05-07T01:31:52.534Z,7.37
2019-05-07T01:34:39.296Z,7.20
2019-05-07T01:37:09.682Z,7.37
2019-05-07T01:39:38.567Z,7.00
2019-05-07T01:42:07.449Z,6.80
2019-05-07T01:44:36.323Z,7.17
2019-05-07T01:47:05.227Z,7.22
2019-05-07T01:49:34.021Z,7.30
2019-05-07T01:52:04.473Z,7.37
2019-05-07T01:54:33.646Z,7.43
2019-05-07T01:57:03.012Z,7.20
2019-05-07T01:59:34.182Z,6.63
2019-05-07T02:02:12.163Z,7.00
2019-05-07T02:04:47.615Z,6.23
2019-05-07T02:07:27.500Z,6.33
2019-05-07T02:10:11.951Z,6.07
2019-05-07T02:12:42.546Z,5.87
2019-05-07T02:15:12.083Z,5.80
2019-05-07T02:17:43.025Z,7.00
2019-05-07T02:20:15.581Z,7.10
2019-05-07T02:22:44.400Z,7.97
2019-05-07T02:25:13.760Z,7.40
2019-05-07T02:27:42.556Z,7.43
2019-05-07T02:30:14.723Z,7.57
2019-05-07T02:32:43.271Z,7.03
2019-05-07T02:35:13.786Z,7.10
2019-05-07T02:37:56.178Z,6.55
2019-05-07T02:40:45.152Z,7.23
2019-05-07T02:43:14.276Z,7.53
2019-05-07T02:46:27.487Z,7.08
2019-05-07T02:49:05.083Z,7.12
2019-05-07T02:51:43.547Z,7.00
2019-05-07T02:54:24.459Z,7.10
2019-05-07T02:56:53.550Z,6.35
2019-05-07T02:59:23.265Z,7.23
2019-05-07T03:01:53.932Z,7.30
2019-05-07T03:04:25.053Z,6.63
2019-05-07T03:06:55.473Z,7.07
2019-05-07T03:09:24.296Z,6.43
2019-05-07T03:11:53.256Z,6.77
2019-05-07T03:14:23.633Z,6.80
2019-05-07T03:16:53.695Z,6.47
2019-05-07T03:19:25.120Z,6.53
2019-05-07T03:21:54.667Z,6.20
2019-05-07T03:24:39.727Z,5.87
2019-05-07T03:27:13.806Z,6.80
2019-05-07T03:29:45.212Z,6.47
2019-05-07T03:32:37.853Z,5.83
2019-05-07T03:35:28.824Z,6.80
2019-05-07T03:37:58.271Z,6.03
2019-05-07T03:40:32.785Z,6.35
2019-05-07T03:43:01.926Z,6.10
2019-05-07T03:45:43.200Z,6.50
2019-05-07T03:48:19.313Z,5.80
2019-05-07T03:50:48.236Z,6.37
2019-05-07T03:53:17.199Z,6.77
2019-05-07T03:55:45.992Z,6.37
2019-05-07T03:58:15.049Z,7.23
2019-05-07T04:00:46.912Z,7.10
2019-05-07T04:03:19.415Z,7.63
2019-05-07T04:05:46.393Z,7.23
2019-05-07T04:08:15.388Z,7.17
2019-05-07T04:10:45.520Z,6.90
2019-05-07T04:13:18.733Z,6.97
2019-05-07T04:15:48.457Z,8.20
2019-05-07T04:18:17.460Z,7.50
2019-05-07T04:20:46.363Z,12.10
2019-05-07T04:23:15.272Z,12.83
2019-05-07T04:26:04.223Z,7.43
2019-05-07T04:28:55.880Z,7.50
2019-05-07T04:31:26.462Z,7.30
2019-05-07T04:33:57.063Z,7.53
2019-05-07T04:36:35.106Z,8.03
2019-05-07T04:39:05.062Z,7.57
2019-05-07T04:41:33.889Z,8.27
2019-05-07T04:44:03.927Z,6.83
2019-05-07T04:46:34.952Z,6.83
2019-05-07T04:49:04.224Z,7.07
2019-05-07T04:51:55.083Z,7.62
2019-05-07T04:54:23.896Z,11.38
2019-05-07T04:56:53.285Z,9.87
2019-05-07T04:59:23.844Z,8.50
2019-05-07T05:01:59.530Z,8.83
2019-05-07T05:04:31.538Z,9.23
2019-05-07T05:07:02.589Z,8.67
2019-05-07T05:09:29.583Z,9.53
2019-05-07T05:11:58.927Z,9.03
2019-05-07T05:14:27.818Z,9.03
2019-05-07T05:16:57.790Z,9.30
2019-05-07T05:19:26.689Z,8.73
2019-05-07T05:22:12.802Z,8.43
2019-05-07T05:24:45.516Z,8.70
2019-05-07T05:27:16.223Z,7.77
2019-05-07T05:29:49.335Z,7.57
2019-05-07T05:32:18.162Z,7.63
2019-05-07T05:34:56.834Z,7.60
2019-05-07T05:37:35.358Z,6.90
2019-05-07T05:40:08.831Z,6.87
2019-05-07T05:42:45.243Z,6.73
2019-05-07T05:45:33.897Z,6.92
2019-05-07T05:48:08.410Z,7.00
2019-05-07T05:50:53.749Z,6.83
2019-05-07T05:53:32.666Z,6.70
2019-05-07T05:56:05.430Z,7.20
2019-05-07T05:58:53.323Z,7.97
2019-05-07T06:01:32.392Z,8.13
2019-05-07T06:04:13.697Z,7.97
2019-05-07T06:07:07.891Z,8.40
2019-05-07T06:09:32.972Z,7.70
2019-05-07T06:12:33.031Z,7.90
2019-05-07T06:15:33.454Z,8.37
2019-05-07T06:18:20.552Z,8.10
2019-05-07T06:21:02.989Z,8.25
2019-05-07T06:23:44.580Z,8.15
2019-05-07T06:26:17.453Z,7.93
2019-05-07T06:28:49.125Z,7.90
2019-05-07T06:31:19.302Z,8.03
2019-05-07T06:33:48.097Z,7.90
2019-05-07T06:36:16.945Z,7.87
2019-05-07T06:38:56.520Z,8.10
2019-05-07T06:41:45.297Z,8.33
2019-05-07T06:44:18.542Z,7.87
2019-05-07T06:46:48.359Z,8.03
2019-05-07T06:49:17.141Z,7.60
2019-05-07T06:51:47.806Z,7.23
2019-05-07T06:54:16.641Z,8.10
2019-05-07T06:56:48.938Z,8.03
2019-05-07T06:59:34.807Z,8.93
2019-05-07T07:02:22.565Z,8.53
2019-05-07T07:05:13.965Z,8.63
2019-05-07T07:08:02.401Z,8.83
2019-05-07T07:10:49.384Z,8.30
2019-05-07T07:13:22.258Z,8.88
2019-05-07T07:15:52.060Z,9.40
2019-05-07T07:18:22.897Z,8.95
2019-05-07T07:20:52.424Z,8.13
2019-05-07T07:23:24.618Z,8.20
2019-05-07T07:25:53.510Z,8.37
2019-05-07T07:28:24.208Z,8.47
2019-05-07T07:30:59.559Z,8.40
2019-05-07T07:33:31.968Z,8.63
2019-05-07T07:36:02.510Z,8.40
2019-05-07T07:38:35.435Z,8.43
2019-05-07T07:41:35.576Z,8.60
2019-05-07T07:44:05.470Z,8.77
2019-05-07T07:46:37.758Z,8.88
2019-05-07T07:49:11.505Z,7.87
2019-05-07T07:51:41.718Z,8.07
2019-05-07T07:54:07.898Z,8.23
2019-05-07T07:56:50.011Z,8.47
2019-05-07T07:59:32.864Z,7.60
2019-05-07T08:02:19.728Z,7.42
2019-05-07T08:04:53.008Z,7.23
2019-05-07T08:07:22.843Z,7.30
2019-05-07T08:09:52.126Z,7.23
2019-05-07T08:12:23.079Z,7.23
2019-05-07T08:14:52.126Z,6.70
2019-05-07T08:17:22.445Z,6.87
2019-05-07T08:19:52.146Z,7.00
2019-05-07T08:22:22.545Z,6.70
2019-05-07T08:24:52.053Z,6.60
2019-05-07T08:27:22.243Z,6.30
2019-05-07T08:29:52.700Z,6.70
2019-05-07T08:32:37.878Z,6.55
2019-05-07T08:35:14.805Z,6.87
2019-05-07T08:37:43.685Z,6.43
2019-05-07T08:40:13.132Z,6.57
2019-05-07T08:42:42.116Z,6.80
2019-05-07T08:45:32.604Z,6.87
2019-05-07T08:48:06.569Z,6.10
2019-05-07T08:50:36.532Z,6.40
2019-05-07T08:53:05.414Z,5.53
2019-05-07T08:55:34.361Z,5.73
2019-05-07T08:58:03.318Z,5.53
2019-05-07T09:00:32.606Z,5.80
2019-05-07T09:03:01.784Z,5.20
2019-05-07T09:05:32.319Z,5.10
2019-05-07T09:08:04.044Z,4.92
2019-05-07T09:10:32.932Z,5.50
2019-05-07T09:13:02.769Z,5.17
2019-05-07T09:15:43.172Z,5.30
2019-05-07T09:18:19.026Z,4.93
2019-05-07T09:20:47.803Z,5.23
2019-05-07T09:23:16.698Z,4.90
2019-05-07T09:25:55.879Z,5.10
2019-05-07T09:28:26.725Z,4.50
2019-05-07T09:31:02.286Z,5.07
2019-05-07T09:33:37.447Z,4.63
2019-05-07T09:36:12.042Z,4.00
2019-05-07T09:38:41.851Z,4.13
2019-05-07T09:41:26.721Z,4.60
2019-05-07T09:43:59.804Z,4.73
2019-05-07T09:46:28.771Z,4.25
2019-05-07T09:48:57.678Z,4.83
2019-05-07T09:51:27.767Z,4.95
2019-05-07T09:53:56.725Z,4.60
2019-05-07T09:56:25.701Z,4.90
2019-05-07T09:58:54.664Z,4.57
2019-05-07T10:01:23.773Z,4.23
2019-05-07T10:03:55.734Z,4.73
2019-05-07T10:06:25.598Z,4.80
2019-05-07T10:08:55.566Z,4.93
2019-05-07T10:11:32.905Z,4.17
2019-05-07T10:14:06.175Z,4.30
2019-05-07T10:16:42.002Z,4.47
2019-05-07T10:19:12.293Z,3.87
2019-05-07T10:21:42.549Z,4.67
2019-05-07T10:24:14.531Z,4.70
2019-05-07T10:26:43.458Z,4.95
2019-05-07T10:29:12.677Z,4.47
2019-05-07T10:31:42.472Z,4.63
2019-05-07T10:34:14.506Z,5.00
2019-05-07T10:36:44.765Z,4.30
2019-05-07T10:39:13.814Z,4.27
2019-05-07T10:41:44.111Z,4.77
2019-05-07T10:44:20.365Z,4.53
2019-05-07T10:47:07.323Z,4.47
2019-05-07T10:49:42.268Z,4.20
2019-05-07T10:52:12.594Z,4.47
2019-05-07T10:54:41.722Z,4.03
2019-05-07T10:57:11.953Z,4.22
2019-05-07T10:59:42.215Z,4.27
2019-05-07T11:02:21.946Z,4.07
2019-05-07T11:04:53.079Z,4.30
2019-05-07T11:07:22.257Z,4.30
2019-05-07T11:09:55.574Z,3.90
2019-05-07T11:12:23.930Z,4.05
2019-05-07T11:14:56.273Z,3.60
2019-05-07T11:17:41.898Z,4.07
2019-05-07T11:20:12.250Z,3.57
2019-05-07T11:22:44.392Z,4.12
2019-05-07T11:25:13.511Z,3.80
2019-05-07T11:27:42.697Z,3.90
2019-05-07T11:30:12.647Z,4.00
2019-05-07T11:32:43.937Z,3.83
2019-05-07T11:35:14.691Z,3.83
2019-05-07T11:37:44.398Z,4.05
2019-05-07T11:40:15.549Z,3.93
2019-05-07T11:43:02.314Z,3.67
2019-05-07T11:45:35.818Z,4.03
2019-05-07T11:48:04.913Z,3.80
2019-05-07T11:50:39.521Z,3.60
2019-05-07T11:53:09.932Z,3.98
2019-05-07T11:55:38.819Z,3.83
2019-05-07T11:58:12.869Z,3.50
2019-05-07T12:00:53.316Z,2.87
2019-05-07T12:03:22.203Z,3.40
2019-05-07T12:05:52.686Z,3.27
2019-05-07T12:08:23.715Z,3.20
2019-05-07T12:10:52.477Z,3.20
2019-05-07T12:13:21.776Z,3.58
2019-05-07T12:15:52.195Z,3.20
2019-05-07T12:18:23.289Z,3.60
2019-05-07T12:20:54.114Z,3.40
2019-05-07T12:23:22.865Z,3.50
2019-05-07T12:25:52.910Z,3.07
2019-05-07T12:28:22.504Z,3.40
2019-05-07T12:31:22.427Z,3.37
2019-05-07T12:34:04.732Z,3.07
2019-05-07T12:36:33.629Z,3.20
2019-05-07T12:39:04.113Z,2.93
2019-05-07T12:41:34.220Z,3.12
2019-05-07T12:44:06.533Z,3.10
2019-05-07T12:46:36.322Z,3.07
2019-05-07T12:49:05.858Z,3.10
2019-05-07T12:51:52.089Z,2.80
2019-05-07T12:54:36.727Z,2.97
2019-05-07T12:57:05.858Z,2.93
2019-05-07T12:59:34.747Z,3.13
2019-05-07T13:02:26.843Z,2.70
2019-05-07T13:04:42.573Z,2.80
2019-05-07T13:07:16.486Z,2.87
2019-05-07T13:09:45.403Z,2.67
2019-05-07T13:12:14.377Z,2.80
2019-05-07T13:14:43.190Z,3.20
2019-05-07T13:17:12.184Z,2.52
2019-05-07T13:19:42.012Z,2.53
2019-05-07T13:22:13.149Z,3.00
2019-05-07T13:24:42.616Z,2.30
2019-05-07T13:27:14.067Z,2.92
2019-05-07T13:29:44.919Z,2.23
2019-05-07T13:32:15.163Z,2.30
2019-05-07T13:34:44.958Z,2.63
2019-05-07T13:37:21.873Z,2.33
2019-05-07T13:40:02.551Z,2.53
2019-05-07T13:42:41.970Z,2.92
2019-05-07T13:45:31.888Z,3.13
2019-05-07T13:48:16.469Z,2.37
2019-05-07T13:50:45.698Z,2.80
2019-05-07T13:53:18.097Z,2.30
2019-05-07T13:55:49.588Z,2.50
2019-05-07T13:58:18.104Z,2.37
2019-05-07T14:01:06.152Z,2.35
2019-05-07T14:03:35.040Z,2.37
2019-05-07T14:06:05.339Z,2.50
2019-05-07T14:08:39.079Z,2.20
2019-05-07T14:11:08.180Z,4.07
2019-05-07T14:13:38.264Z,2.30
2019-05-07T14:16:08.695Z,2.57
2019-05-07T14:18:39.204Z,2.10
2019-05-07T14:21:08.775Z,2.53
2019-05-07T14:23:40.156Z,2.60
2019-05-07T14:26:09.042Z,2.20
2019-05-07T14:28:42.146Z,2.13
2019-05-07T14:31:12.496Z,2.07
2019-05-07T14:33:47.591Z,2.13
2019-05-07T14:36:23.725Z,2.30
2019-05-07T14:38:53.938Z,2.70
2019-05-07T14:41:25.809Z,2.10
2019-05-07T14:44:06.023Z,1.90
2019-05-07T14:46:44.556Z,2.27
2019-05-07T14:49:06.826Z,2.20
2019-05-07T14:51:37.628Z,2.23
2019-05-07T14:54:07.007Z,2.70
2019-05-07T14:56:36.427Z,2.40
2019-05-07T14:59:05.465Z,2.53
2019-05-07T15:01:34.463Z,2.45
2019-05-07T15:04:03.559Z,1.90
2019-05-07T15:06:32.667Z,2.40
2019-05-07T15:09:11.948Z,2.27
2019-05-07T15:11:42.539Z,2.67
2019-05-07T15:14:12.076Z,2.10
2019-05-07T15:16:42.631Z,2.20
2019-05-07T15:19:12.442Z,2.20
2019-05-07T15:21:42.581Z,1.95
2019-05-07T15:24:14.045Z,2.03
2019-05-07T15:26:42.923Z,2.67
2019-05-07T15:29:14.934Z,2.10
2019-05-07T15:32:00.232Z,2.60
2019-05-07T15:34:29.218Z,1.90
2019-05-07T15:37:01.569Z,2.20
2019-05-07T15:39:32.872Z,2.20
2019-05-07T15:42:03.500Z,2.12
2019-05-07T15:44:34.110Z,2.00
2019-05-07T15:47:07.702Z,2.22
2019-05-07T15:49:36.630Z,2.10
2019-05-07T15:52:14.681Z,2.25
2019-05-07T15:54:45.379Z,2.10
2019-05-07T15:57:17.336Z,2.12
2019-05-07T15:59:46.150Z,2.20
2019-05-07T16:02:26.453Z,2.27
2019-05-07T16:04:56.866Z,2.00
2019-05-07T16:07:28.658Z,2.22
2019-05-07T16:09:57.508Z,2.57
2019-05-07T16:12:26.383Z,2.60
2019-05-07T16:14:55.201Z,2.30
2019-05-07T16:17:29.677Z,3.15
2019-05-07T16:20:00.024Z,3.20
2019-05-07T16:22:33.725Z,2.10
2019-05-07T16:25:06.837Z,2.70
2019-05-07T16:27:34.906Z,2.65
2019-05-07T16:30:04.116Z,2.30
2019-05-07T16:32:33.006Z,2.20
2019-05-07T16:35:05.632Z,2.00
2019-05-07T16:37:34.265Z,2.27
2019-05-07T16:40:04.660Z,2.40
2019-05-07T16:42:34.461Z,2.70
2019-05-07T16:48:25.947Z,2.70
2019-05-07T16:50:57.867Z,2.70
2019-05-07T16:53:30.084Z,2.57
2019-05-07T16:56:00.093Z,2.80
2019-05-07T17:41:22.182Z,2.03
2019-05-07T17:43:46.513Z,2.33
2019-05-07T17:46:15.299Z,2.80
2019-05-07T17:48:44.074Z,2.70
2019-05-07T17:51:32.365Z,3.20
2019-05-07T17:54:01.374Z,3.10
2019-05-07T17:56:31.918Z,2.40
2019-05-07T17:59:02.857Z,2.67
2019-05-07T18:01:39.448Z,2.97
2019-05-07T18:04:08.399Z,2.50
2019-05-07T18:06:37.211Z,3.33
2019-05-07T18:09:06.438Z,2.77
2019-05-07T18:11:35.296Z,2.40
2019-05-07T18:14:04.639Z,2.30
2019-05-07T18:16:49.924Z,2.50
2019-05-07T18:19:19.034Z,3.00
2019-05-07T18:22:06.095Z,2.50
2019-05-07T18:24:34.994Z,2.73
2019-05-07T18:27:05.689Z,2.40
2019-05-07T18:29:34.563Z,2.37
2019-05-07T18:32:07.251Z,2.80
2019-05-07T18:34:36.135Z,2.20
2019-05-07T18:37:05.120Z,2.20
2019-05-07T18:39:34.025Z,2.37
2019-05-07T18:42:02.933Z,2.37
2019-05-07T18:44:31.742Z,2.10
2019-05-07T18:47:02.332Z,2.77
2019-05-07T18:49:31.118Z,2.12
2019-05-07T18:51:59.928Z,2.50
2019-05-07T18:54:31.226Z,2.30
2019-05-07T18:56:59.445Z,2.30
2019-05-07T18:59:31.831Z,2.02
2019-05-07T19:02:02.306Z,2.03
2019-05-07T19:04:32.885Z,2.37
2019-05-07T19:07:02.570Z,2.33
2019-05-07T19:09:32.074Z,2.40
2019-05-07T19:12:55.120Z,2.50
2019-05-07T19:15:24.109Z,2.37
2019-05-07T19:17:53.047Z,2.17
2019-05-07T19:20:21.890Z,2.40
2019-05-07T19:22:51.874Z,2.53
2019-05-07T19:25:20.979Z,2.50
2019-05-07T19:27:49.801Z,2.43
2019-05-07T19:30:18.859Z,2.53
2019-05-07T19:32:47.725Z,2.47
2019-05-07T19:35:16.980Z,2.30
2019-05-07T19:37:45.926Z,2.60
2019-05-07T19:40:14.870Z,2.52
2019-05-07T19:42:43.683Z,2.43
2019-05-07T19:45:12.825Z,3.87
2019-05-07T19:47:42.779Z,2.33
2019-05-07T19:50:12.710Z,2.40
2019-05-07T19:52:42.633Z,2.20
2019-05-07T19:55:13.110Z,2.53
2019-05-07T19:57:47.863Z,2.63
2019-05-07T20:00:17.693Z,2.50
2019-05-07T20:02:49.747Z,2.70
2019-05-07T20:05:19.129Z,2.97
2019-05-07T20:07:47.961Z,2.40
2019-05-07T20:10:22.323Z,2.30
2019-05-07T20:12:52.164Z,2.40
2019-05-07T20:15:22.380Z,2.47
2019-05-07T20:17:52.635Z,2.60
2019-05-07T20:20:22.164Z,2.73
2019-05-07T20:22:51.812Z,2.20
2019-05-07T20:25:22.557Z,2.70
2019-05-07T20:27:52.707Z,2.87
2019-05-07T20:30:22.855Z,3.03
2019-05-07T20:32:52.358Z,2.55
2019-05-07T20:35:21.605Z,2.60
2019-05-07T20:37:52.101Z,2.47
2019-05-07T20:40:22.720Z,2.80
2019-05-07T20:42:52.444Z,2.80
2019-05-07T20:45:23.749Z,3.17
2019-05-07T20:47:52.800Z,2.90
2019-05-07T20:50:22.246Z,3.33
2019-05-07T20:52:52.396Z,3.50
2019-05-07T20:55:43.947Z,2.83
2019-05-07T20:58:12.963Z,3.07
2019-05-07T21:00:43.411Z,2.70
2019-05-07T21:03:23.744Z,3.37
2019-05-07T21:05:53.403Z,3.47
2019-05-07T21:08:23.002Z,3.60
2019-05-07T21:10:53.481Z,3.63
2019-05-07T21:13:32.463Z,3.30
2019-05-07T21:15:53.517Z,3.53
2019-05-07T21:18:23.392Z,3.50
2019-05-07T21:20:53.122Z,3.00
2019-05-07T21:23:23.147Z,3.20
2019-05-07T21:25:53.028Z,2.67
2019-05-07T21:28:22.202Z,2.93
2019-05-07T21:30:52.249Z,3.00
2019-05-07T21:33:22.865Z,3.37
2019-05-07T21:35:52.463Z,3.07
2019-05-07T21:38:22.379Z,3.57
2019-05-07T21:40:51.698Z,3.33
2019-05-07T21:43:22.188Z,3.20
2019-05-07T21:45:52.958Z,3.47
2019-05-07T21:48:22.550Z,3.43
2019-05-07T21:50:52.780Z,3.67
2019-05-07T21:53:27.257Z,3.53
2019-05-07T21:56:12.592Z,3.67
2019-05-07T21:58:45.377Z,3.40
2019-05-07T22:03:46.912Z,3.67
2019-05-07T22:06:15.846Z,3.60
2019-05-07T22:08:44.777Z,3.40
2019-05-07T22:11:13.657Z,3.60
2019-05-07T22:13:43.469Z,4.50
2019-05-07T22:16:13.208Z,3.95
2019-05-07T22:18:42.792Z,4.17
2019-05-07T22:21:12.384Z,3.60
2019-05-07T22:23:42.813Z,4.10
2019-05-07T22:26:23.137Z,3.75
2019-05-07T22:28:43.119Z,4.00
2019-05-07T22:31:34.178Z,3.80
2019-05-07T22:34:12.884Z,4.13
2019-05-07T22:36:43.171Z,4.17
2019-05-07T22:39:12.668Z,3.73
2019-05-07T22:41:42.491Z,3.30
2019-05-07T22:44:12.116Z,3.70
2019-05-07T22:46:42.207Z,3.57
2019-05-07T22:49:12.236Z,3.90
2019-05-07T22:51:41.351Z,4.10
2019-05-07T22:54:11.880Z,4.00
2019-05-07T22:56:58.762Z,3.83
2019-05-07T22:59:27.601Z,3.83
2019-05-07T23:01:56.480Z,4.70
2019-05-07T23:04:25.314Z,4.20
2019-05-07T23:06:54.229Z,3.90
2019-05-07T23:09:23.423Z,4.00
2019-05-07T23:11:54.805Z,4.00
2019-05-07T23:14:22.883Z,4.60
2019-05-07T23:16:52.553Z,4.37
2019-05-07T23:19:22.384Z,4.20
2019-05-07T23:21:52.441Z,4.20
2019-05-07T23:24:24.462Z,4.70
2019-05-07T23:26:53.717Z,4.20
2019-05-07T23:29:22.736Z,4.67
2019-05-07T23:31:52.814Z,4.60
2019-05-07T23:34:22.497Z,4.50
2019-05-07T23:36:53.405Z,5.30
2019-05-07T23:39:23.687Z,4.50
2019-05-07T23:42:02.122Z,5.00
2019-05-07T23:44:30.545Z,4.60
2019-05-07T23:46:59.409Z,5.17
2019-05-07T23:49:28.193Z,5.15
2019-05-07T23:51:57.005Z,5.00
2019-05-07T23:54:25.782Z,5.13
2019-05-07T23:57:05.811Z,5.53
2019-05-07T23:59:25.116Z,5.20
